Time;durP1;ratioP1;P1;durP2;ratioP2;P2;SDS_P1;SDS_P2;PMS_P1;PMS_P2;Temp;Humidity;BMP_temperature;BMP_pressure;BME280_temperature;BME280_humidity;BME280_pressure;Samples;Min_cycle;Max_cycle;Signal;HPM_P1;HPM_P2
2023/07/27 00:01:27;;;;;;;4.70;2.03;;;14.20;99.90;;;;;;5097010;28;20044;-47
2023/07/27 00:03:54;;;;;;;5.82;2.40;;;14.20;99.90;;;;;;5096641;28;20457;-47
2023/07/27 00:06:20;;;;;;;4.32;1.80;;;14.20;99.90;;;;;;5096636;28;20040;-49
2023/07/27 00:08:45;;;;;;;4.32;1.77;;;14.20;99.90;;;;;;5096633;28;20105;-48
2023/07/27 00:11:11;;;;;;;4.85;1.70;;;14.20;99.90;;;;;;5096753;28;20036;-48
2023/07/27 00:13:37;;;;;;;5.33;1.77;;;14.20;99.90;;;;;;5096640;28;20112;-47
2023/07/27 00:16:02;;;;;;;4.80;1.87;;;14.20;99.90;;;;;;5095643;28;20294;-48
2023/07/27 00:18:28;;;;;;;6.90;2.30;;;14.20;99.90;;;;;;5096513;28;20056;-47
2023/07/27 00:20:54;;;;;;;6.10;2.47;;;14.10;99.90;;;;;;5096521;28;20285;-47
2023/07/27 00:23:19;;;;;;;4.77;1.93;;;14.10;99.90;;;;;;5094967;28;20044;-48
2023/07/27 00:25:45;;;;;;;4.90;2.00;;;14.10;99.90;;;;;;5095407;28;20071;-47
2023/07/27 00:28:11;;;;;;;6.23;2.40;;;14.10;99.90;;;;;;5095928;28;20152;-47
2023/07/27 00:30:36;;;;;;;4.77;1.60;;;14.10;99.90;;;;;;5096399;28;20290;-47
2023/07/27 00:33:02;;;;;;;4.00;1.80;;;14.10;99.90;;;;;;5096316;28;20101;-47
2023/07/27 00:35:28;;;;;;;4.95;2.03;;;14.10;99.90;;;;;;5094929;28;20510;-48
2023/07/27 00:37:53;;;;;;;5.87;2.30;;;14.10;99.90;;;;;;5096168;28;20044;-47
2023/07/27 00:40:19;;;;;;;6.50;1.93;;;14.10;99.90;;;;;;5096148;28;20040;-47
2023/07/27 00:42:45;;;;;;;4.40;1.77;;;14.10;99.90;;;;;;5096382;28;20436;-48
2023/07/27 00:45:10;;;;;;;5.07;1.83;;;14.10;99.90;;;;;;5095846;28;20051;-47
2023/07/27 00:47:36;;;;;;;5.60;2.23;;;14.10;99.90;;;;;;5096054;28;20281;-47
2023/07/27 00:50:02;;;;;;;5.13;2.08;;;14.00;99.90;;;;;;5095786;28;20035;-48
2023/07/27 00:52:28;;;;;;;5.10;2.30;;;14.10;99.90;;;;;;5095674;28;20044;-47
2023/07/27 00:54:56;;;;;;;4.93;1.85;;;14.10;99.90;;;;;;5095633;28;20379;-47
2023/07/27 00:57:21;;;;;;;5.50;2.08;;;14.00;99.90;;;;;;5094875;28;20044;-47
2023/07/27 00:59:47;;;;;;;4.55;1.80;;;14.00;99.90;;;;;;5096015;28;20044;-47
2023/07/27 01:02:13;;;;;;;5.68;2.67;;;14.00;99.90;;;;;;5095630;28;20502;-47
2023/07/27 01:04:39;;;;;;;5.22;2.10;;;14.10;99.90;;;;;;5095556;28;20429;-47
2023/07/27 01:07:05;;;;;;;6.72;2.40;;;14.00;99.90;;;;;;5095405;28;20044;-47
2023/07/27 01:09:31;;;;;;;6.53;2.70;;;14.00;99.90;;;;;;5095992;28;20119;-47
2023/07/27 01:12:06;;;;;;;5.75;2.00;;;14.00;99.90;;;;;;5095533;28;20048;-47
2023/07/27 01:15:05;;;;;;;5.78;2.20;;;14.00;99.90;;;;;;5095619;28;20047;-47
2023/07/27 01:18:00;;;;;;;6.28;2.40;;;14.00;99.90;;;;;;5094821;28;20052;-48
2023/07/27 01:20:35;;;;;;;5.63;2.20;;;14.00;99.90;;;;;;5095333;28;20062;-47
2023/07/27 01:23:16;;;;;;;6.47;3.00;;;14.00;99.90;;;;;;5095516;28;20403;-49
2023/07/27 01:26:16;;;;;;;4.82;2.35;;;14.00;99.90;;;;;;5094898;28;20036;-47
2023/07/27 01:28:57;;;;;;;6.68;2.50;;;14.00;99.90;;;;;;5095580;28;20052;-48
2023/07/27 01:31:26;;;;;;;7.35;2.75;;;14.00;99.90;;;;;;5094040;28;20445;-47
2023/07/27 01:34:04;;;;;;;5.28;2.30;;;14.00;99.90;;;;;;5093707;28;20054;-47
2023/07/27 01:36:37;;;;;;;5.40;2.20;;;14.00;99.90;;;;;;5095277;28;20040;-47
2023/07/27 01:39:07;;;;;;;5.53;2.10;;;14.00;99.90;;;;;;5094656;28;20441;-47
2023/07/27 01:41:33;;;;;;;4.90;2.15;;;14.00;99.90;;;;;;5094961;28;20040;-47
2023/07/27 01:44:01;;;;;;;6.65;2.38;;;14.00;99.90;;;;;;5094710;28;20048;-47
2023/07/27 01:46:30;;;;;;;5.22;2.13;;;14.00;99.90;;;;;;5094754;28;20059;-47
2023/07/27 01:48:56;;;;;;;4.88;2.05;;;14.00;99.90;;;;;;5093817;28;20052;-47
2023/07/27 01:51:24;;;;;;;4.32;1.88;;;14.00;99.90;;;;;;5093798;28;20100;-46
2023/07/27 01:53:50;;;;;;;5.90;2.30;;;14.00;99.90;;;;;;5093551;28;20052;-47
2023/07/27 01:56:17;;;;;;;6.18;2.38;;;14.00;99.90;;;;;;5094897;28;20048;-47
2023/07/27 01:58:45;;;;;;;6.35;2.47;;;14.00;99.90;;;;;;5094606;28;20479;-47
2023/07/27 02:01:11;;;;;;;6.13;2.13;;;13.90;99.90;;;;;;5094492;28;20494;-47
2023/07/27 02:03:36;;;;;;;7.88;2.38;;;13.90;99.90;;;;;;5093529;28;20040;-47
2023/07/27 02:06:02;;;;;;;4.17;1.73;;;13.90;99.90;;;;;;5094416;28;20137;-48
2023/07/27 02:08:28;;;;;;;6.28;2.63;;;13.90;99.90;;;;;;5094315;28;20738;-47
2023/07/27 02:10:59;;;;;;;6.40;2.08;;;13.90;99.90;;;;;;5094602;28;20059;-47
2023/07/27 02:13:31;;;;;;;4.88;1.80;;;13.80;99.90;;;;;;5094201;28;20040;-47
2023/07/27 02:16:36;;;;;;;4.03;2.15;;;13.80;99.90;;;;;;5094048;28;20054;-47
2023/07/27 02:19:04;;;;;;;5.78;2.10;;;13.80;99.90;;;;;;5094407;28;20050;-47
2023/07/27 02:21:32;;;;;;;5.35;2.38;;;13.80;99.90;;;;;;5094072;28;20148;-47
2023/07/27 02:23:58;;;;;;;5.38;2.08;;;13.70;99.90;;;;;;5094185;28;20040;-47
2023/07/27 02:26:24;;;;;;;;;;;13.70;99.90;;;;;;5094420;28;20036;-47
2023/07/27 02:28:50;;;;;;;6.72;2.65;;;13.70;99.90;;;;;;5094540;28;19927;-48
2023/07/27 02:31:16;;;;;;;5.33;2.13;;;13.70;99.90;;;;;;5093954;28;20462;-47
2023/07/27 02:33:41;;;;;;;5.93;2.03;;;13.70;99.90;;;;;;5094024;28;20357;-48
2023/07/27 02:36:07;;;;;;;5.47;2.37;;;13.70;99.90;;;;;;5093989;28;20481;-48
2023/07/27 02:38:32;;;;;;;5.13;2.27;;;13.70;99.90;;;;;;5093984;28;20052;-47
2023/07/27 02:40:58;;;;;;;5.43;2.47;;;13.70;99.90;;;;;;5093835;28;20398;-47
2023/07/27 02:43:24;;;;;;;6.03;2.00;;;13.70;99.90;;;;;;5093931;28;20052;-46
2023/07/27 02:45:50;;;;;;;6.45;2.25;;;13.60;99.90;;;;;;5092635;28;20044;-47
2023/07/27 02:48:15;;;;;;;5.97;2.77;;;13.60;99.90;;;;;;5094151;28;20047;-46
2023/07/27 02:50:51;;;;;;;4.40;1.70;;;13.60;99.90;;;;;;5093778;28;20487;-46
2023/07/27 02:53:17;;;;;;;5.32;2.13;;;13.60;99.90;;;;;;5093629;28;20055;-47
2023/07/27 02:55:43;;;;;;;5.03;2.03;;;13.60;99.90;;;;;;5093713;28;20054;-48
2023/07/27 02:58:08;;;;;;;5.05;1.80;;;13.60;99.90;;;;;;5093827;28;20376;-47
2023/07/27 03:00:34;;;;;;;5.78;1.92;;;13.60;99.90;;;;;;5076048;28;20101;-47
2023/07/27 03:03:02;;;;;;;4.70;2.13;;;13.60;99.90;;;;;;5093766;28;20043;-48
2023/07/27 03:05:28;;;;;;;5.57;2.10;;;13.60;99.90;;;;;;5092347;28;20044;-47
2023/07/27 03:07:54;;;;;;;4.20;1.70;;;13.70;99.90;;;;;;5093481;28;20067;-47
2023/07/27 03:10:19;;;;;;;4.10;1.83;;;13.60;99.90;;;;;;5092862;28;20097;-47
2023/07/27 03:12:45;;;;;;;6.13;2.03;;;13.60;99.90;;;;;;5093707;28;20070;-46
2023/07/27 03:15:11;;;;;;;5.33;2.30;;;13.70;99.90;;;;;;5093532;28;20047;-47
2023/07/27 03:17:36;;;;;;;5.37;1.60;;;13.70;99.90;;;;;;5093594;28;20048;-47
2023/07/27 03:20:02;;;;;;;5.93;1.57;;;13.70;99.90;;;;;;5092334;28;20052;-46
2023/07/27 03:22:28;;;;;;;5.47;2.23;;;13.70;99.90;;;;;;5093451;28;20056;-46
2023/07/27 03:24:53;;;;;;;6.80;1.97;;;13.70;99.90;;;;;;5093528;28;20043;-46
2023/07/27 03:27:19;;;;;;;5.33;2.10;;;13.70;99.90;;;;;;5093715;28;20040;-46
2023/07/27 03:29:44;;;;;;;4.83;1.97;;;13.70;99.90;;;;;;5093862;28;20510;-47
2023/07/27 03:32:10;;;;;;;4.47;1.70;;;13.70;99.90;;;;;;5093618;28;20328;-47
2023/07/27 03:34:36;;;;;;;4.87;2.10;;;13.70;99.90;;;;;;5093446;28;20127;-47
2023/07/27 03:37:01;;;;;;;6.43;2.23;;;13.80;99.90;;;;;;5093287;28;20665;-47
2023/07/27 03:39:27;;;;;;;5.03;1.90;;;13.80;99.90;;;;;;5093477;28;20048;-46
2023/07/27 03:41:53;;;;;;;7.72;2.65;;;13.80;99.90;;;;;;5093394;28;20499;-47
2023/07/27 03:44:19;;;;;;;5.93;2.00;;;13.80;99.90;;;;;;5093289;28;20127;-48
2023/07/27 03:46:44;;;;;;;5.40;2.03;;;13.80;99.90;;;;;;5093472;28;20104;-47
2023/07/27 03:49:10;;;;;;;4.87;1.73;;;13.90;99.90;;;;;;5075245;28;20085;-47
2023/07/27 03:51:36;;;;;;;5.37;2.10;;;13.90;99.90;;;;;;5093301;28;20047;-46
2023/07/27 03:54:01;;;;;;;6.57;2.10;;;13.90;99.90;;;;;;5092994;28;20077;-47
2023/07/27 03:56:27;;;;;;;4.67;2.10;;;13.90;99.90;;;;;;5093320;28;20048;-47
2023/07/27 03:58:52;;;;;;;5.93;2.00;;;13.90;99.90;;;;;;5093219;28;20051;-47
2023/07/27 04:01:18;;;;;;;6.17;2.40;;;13.90;99.90;;;;;;5093100;28;20040;-47
2023/07/27 04:03:44;;;;;;;5.07;2.40;;;14.00;99.90;;;;;;5095492;28;20048;-47
2023/07/27 04:06:09;;;;;;;6.97;2.80;;;14.00;99.90;;;;;;5096698;28;20135;-47
2023/07/27 04:08:35;;;;;;;5.97;2.53;;;14.00;99.90;;;;;;5096648;28;20139;-47
2023/07/27 04:11:01;;;;;;;6.07;2.60;;;14.10;99.90;;;;;;5096870;28;20058;-47
2023/07/27 04:13:26;;;;;;;7.43;2.50;;;14.00;99.90;;;;;;5096683;28;20778;-47
2023/07/27 04:15:52;;;;;;;4.77;2.20;;;14.10;99.90;;;;;;5096740;28;20046;-48
2023/07/27 04:18:18;;;;;;;6.27;2.13;;;14.10;99.90;;;;;;5096625;28;20044;-48
2023/07/27 04:20:43;;;;;;;6.23;2.70;;;14.10;99.90;;;;;;5095644;28;20430;-47
2023/07/27 04:23:09;;;;;;;5.30;2.50;;;14.10;99.90;;;;;;5096244;28;20496;-47
2023/07/27 04:25:34;;;;;;;8.30;2.83;;;14.10;99.90;;;;;;5096606;28;20387;-47
2023/07/27 04:28:00;;;;;;;7.47;2.33;;;14.10;99.90;;;;;;5096669;28;20505;-47
2023/07/27 04:30:26;;;;;;;5.60;2.20;;;14.10;99.90;;;;;;5096745;28;20434;-47
2023/07/27 04:32:51;;;;;;;7.27;3.73;;;14.20;99.90;;;;;;5096229;28;20509;-46
2023/07/27 04:35:17;;;;;;;5.93;2.50;;;14.20;99.90;;;;;;5096299;28;20036;-46
2023/07/27 04:37:43;;;;;;;6.20;2.60;;;14.20;99.90;;;;;;5094882;28;20048;-46
2023/07/27 04:40:08;;;;;;;6.97;2.70;;;14.20;99.90;;;;;;5095059;28;20135;-45
2023/07/27 04:42:34;;;;;;;6.82;2.63;;;14.20;99.90;;;;;;5096122;28;20059;-46
2023/07/27 04:45:00;;;;;;;7.10;2.90;;;14.20;99.90;;;;;;5095983;28;20048;-46
2023/07/27 04:47:25;;;;;;;5.87;2.83;;;14.20;99.90;;;;;;5095843;28;20328;-46
2023/07/27 04:49:51;;;;;;;6.50;2.37;;;14.20;99.90;;;;;;5095803;28;20044;-47
2023/07/27 04:52:17;;;;;;;6.90;2.43;;;14.30;99.90;;;;;;5095704;28;20079;-46
2023/07/27 04:54:42;;;;;;;7.10;2.80;;;14.30;99.90;;;;;;5095896;28;20048;-46
2023/07/27 04:57:08;;;;;;;6.37;2.90;;;14.30;99.90;;;;;;5096223;28;20048;-46
2023/07/27 04:59:33;;;;;;;7.27;3.27;;;14.30;99.90;;;;;;5095889;28;20059;-46
2023/07/27 05:01:59;;;;;;;6.33;2.93;;;14.30;99.90;;;;;;5094489;28;20051;-45
2023/07/27 05:04:25;;;;;;;6.50;2.83;;;14.30;99.90;;;;;;5095497;28;20085;-46
2023/07/27 05:06:50;;;;;;;5.97;2.60;;;14.30;99.90;;;;;;5095408;28;20165;-46
2023/07/27 05:09:17;;;;;;;6.07;2.50;;;14.30;99.90;;;;;;5094321;28;20456;-45
2023/07/27 05:11:42;;;;;;;7.05;2.38;;;14.30;99.90;;;;;;5095885;28;20290;-45
2023/07/27 05:14:08;;;;;;;7.10;2.70;;;14.30;99.90;;;;;;5094327;28;20089;-44
2023/07/27 05:16:34;;;;;;;6.77;2.83;;;14.30;99.90;;;;;;5095404;28;20289;-45
2023/07/27 05:18:59;;;;;;;7.80;2.80;;;14.30;99.90;;;;;;5095355;28;20040;-45
2023/07/27 05:21:25;;;;;;;6.47;2.73;;;14.30;99.90;;;;;;5094318;28;20368;-45
2023/07/27 05:23:52;;;;;;;6.97;3.10;;;14.40;99.90;;;;;;5095040;28;20417;-45
2023/07/27 05:26:18;;;;;;;7.90;3.60;;;14.40;99.90;;;;;;5093931;28;20298;-44
2023/07/27 05:28:45;;;;;;;9.07;3.10;;;14.40;99.90;;;;;;5095284;28;20387;-45
2023/07/27 05:31:10;;;;;;;6.65;2.70;;;14.40;99.90;;;;;;5095011;28;20765;-46
2023/07/27 05:33:36;;;;;;;6.63;2.97;;;14.40;99.90;;;;;;5095148;28;20106;-45
2023/07/27 05:36:02;;;;;;;9.00;3.60;;;14.50;99.90;;;;;;5095030;28;20040;-45
2023/07/27 05:38:27;;;;;;;8.15;3.40;;;14.40;99.90;;;;;;5094987;28;20131;-45
2023/07/27 05:40:58;;;;;;;7.80;2.90;;;14.40;99.90;;;;;;5095052;28;20130;-45
2023/07/27 05:43:24;;;;;;;6.07;2.83;;;14.40;99.90;;;;;;5095004;28;20064;-46
2023/07/27 05:45:50;;;;;;;7.93;2.87;;;14.50;99.90;;;;;;5094839;28;20059;-46
2023/07/27 05:48:15;;;;;;;8.43;3.33;;;14.50;99.90;;;;;;5094743;28;20281;-45
2023/07/27 05:50:42;;;;;;;6.93;2.97;;;14.50;99.90;;;;;;5094557;28;20093;-46
2023/07/27 05:53:07;;;;;;;8.30;2.95;;;14.50;99.90;;;;;;5094865;28;20261;-45
2023/07/27 05:55:33;;;;;;;6.40;3.20;;;14.50;99.90;;;;;;5094718;28;20563;-45
2023/07/27 05:57:59;;;;;;;7.37;2.97;;;14.50;99.90;;;;;;5094712;28;20040;-45
2023/07/27 06:00:26;;;;;;;6.75;2.85;;;14.50;99.90;;;;;;5094446;28;20058;-45
2023/07/27 06:02:51;;;;;;;7.18;2.90;;;14.50;99.90;;;;;;5094452;28;20052;-45
2023/07/27 06:05:17;;;;;;;6.80;2.77;;;14.50;99.90;;;;;;5094343;28;20044;-45
2023/07/27 06:07:42;;;;;;;6.43;3.10;;;14.50;99.90;;;;;;5094304;28;20292;-45
2023/07/27 06:10:09;;;;;;;6.65;2.70;;;14.50;99.90;;;;;;5094787;28;20093;-46
2023/07/27 06:12:34;;;;;;;8.30;3.28;;;14.40;99.90;;;;;;5094659;28;20061;-45
2023/07/27 06:15:00;;;;;;;6.15;2.55;;;14.40;99.90;;;;;;5094536;28;20040;-46
2023/07/27 06:17:27;;;;;;;4.60;2.00;;;14.40;99.90;;;;;;5093349;28;20046;-45
2023/07/27 06:19:53;;;;;;;6.10;2.70;;;14.40;99.90;;;;;;5094584;28;20285;-45
2023/07/27 06:22:19;;;;;;;5.55;2.25;;;14.40;99.90;;;;;;5094311;28;20052;-45
2023/07/27 06:24:45;;;;;;;5.90;2.60;;;14.50;99.90;;;;;;5094193;28;20044;-46
2023/07/27 06:27:10;;;;;;;5.27;2.67;;;14.50;99.90;;;;;;5092635;28;20456;-45
2023/07/27 06:29:36;;;;;;;5.83;2.20;;;14.50;99.90;;;;;;5093158;28;20105;-45
2023/07/27 06:32:02;;;;;;;6.93;2.60;;;14.50;99.90;;;;;;5094013;28;20177;-45
2023/07/27 06:34:28;;;;;;;5.90;2.75;;;14.60;99.90;;;;;;5092785;28;20051;-45
2023/07/27 06:36:53;;;;;;;6.40;2.30;;;14.60;99.90;;;;;;5094383;28;20482;-45
2023/07/27 06:39:19;;;;;;;6.57;2.47;;;14.60;99.90;;;;;;5094011;28;20048;-46
2023/07/27 06:41:45;;;;;;;6.20;2.57;;;14.70;99.90;;;;;;5093011;28;20062;-46
2023/07/27 06:44:10;;;;;;;5.67;2.23;;;14.70;99.90;;;;;;5093953;28;20286;-45
2023/07/27 06:46:36;;;;;;;4.70;1.87;;;14.80;99.90;;;;;;5093787;28;20094;-45
2023/07/27 06:49:02;;;;;;;6.20;2.43;;;14.80;99.90;;;;;;5093620;28;20048;-45
2023/07/27 06:51:27;;;;;;;5.10;2.27;;;14.90;99.90;;;;;;5092776;28;20044;-46
2023/07/27 06:53:53;;;;;;;5.28;2.60;;;15.00;99.90;;;;;;5093863;28;20437;-46
2023/07/27 06:56:19;;;;;;;4.47;2.07;;;15.00;99.90;;;;;;5093849;28;20044;-45
2023/07/27 06:58:44;;;;;;;5.07;2.13;;;15.10;99.90;;;;;;5093751;28;20040;-45
2023/07/27 07:01:10;;;;;;;5.83;1.87;;;15.10;99.90;;;;;;5093688;28;20051;-45
2023/07/27 07:03:36;;;;;;;4.95;2.10;;;15.10;99.90;;;;;;5093575;28;20339;-45
2023/07/27 07:06:02;;;;;;;5.32;2.13;;;15.20;99.90;;;;;;5093639;28;20036;-46
2023/07/27 07:08:29;;;;;;;4.50;2.05;;;15.20;99.90;;;;;;5093997;28;20067;-45
2023/07/27 07:10:55;;;;;;;5.78;2.28;;;15.20;99.90;;;;;;5093605;28;20483;-45
2023/07/27 07:13:21;;;;;;;5.28;2.20;;;15.20;99.90;;;;;;5092632;28;20479;-47
2023/07/27 07:15:49;;;;;;;4.55;1.98;;;15.30;99.90;;;;;;5093787;28;20063;-45
2023/07/27 07:18:15;;;;;;;5.47;2.17;;;15.30;99.90;;;;;;5093366;28;20119;-45
2023/07/27 07:20:40;;;;;;;5.03;2.30;;;15.20;99.90;;;;;;5093771;28;20605;-45
2023/07/27 07:23:06;;;;;;;5.40;2.22;;;15.30;99.90;;;;;;5093521;28;20282;-49
2023/07/27 07:25:32;;;;;;;5.00;2.23;;;15.30;99.90;;;;;;5093381;28;20044;-48
2023/07/27 07:27:57;;;;;;;6.22;2.40;;;15.30;99.90;;;;;;5093394;28;20090;-46
2023/07/27 07:30:23;;;;;;;4.60;2.07;;;15.30;99.90;;;;;;5093414;28;20044;-45
2023/07/27 07:32:53;;;;;;;5.20;2.30;;;15.30;99.90;;;;;;5093319;28;20128;-46
2023/07/27 07:35:19;;;;;;;4.85;1.85;;;15.30;99.90;;;;;;5093411;28;20090;-45
2023/07/27 07:37:45;;;;;;;4.50;1.88;;;15.30;99.90;;;;;;5093178;28;20491;-46
2023/07/27 07:40:11;;;;;;;4.80;2.07;;;15.30;99.90;;;;;;5097312;28;20101;-46
2023/07/27 07:42:36;;;;;;;5.50;1.88;;;15.30;99.90;;;;;;5097139;28;20298;-46
2023/07/27 07:45:02;;;;;;;5.40;2.05;;;15.40;99.90;;;;;;5097116;28;20040;-46
2023/07/27 07:47:28;;;;;;;4.80;1.65;;;15.40;99.90;;;;;;5079080;28;20138;-45
2023/07/27 07:49:54;;;;;;;4.67;2.00;;;15.40;99.90;;;;;;5097101;28;20131;-46
2023/07/27 07:52:19;;;;;;;5.83;2.53;;;15.40;99.90;;;;;;5097069;28;20091;-46
2023/07/27 07:54:45;;;;;;;4.43;1.83;;;15.40;99.90;;;;;;5097528;28;20053;-46
2023/07/27 07:57:11;;;;;;;4.13;1.95;;;15.50;99.90;;;;;;5097082;28;20044;-45
2023/07/27 07:59:36;;;;;;;6.28;2.10;;;15.50;99.90;;;;;;5096845;28;20391;-45
2023/07/27 08:02:02;;;;;;;5.87;2.00;;;15.50;99.90;;;;;;5096847;28;20135;-46
2023/07/27 08:04:30;;;;;;;4.43;2.05;;;15.50;99.90;;;;;;5096849;28;20048;-46
2023/07/27 08:06:56;;;;;;;4.93;1.88;;;15.50;99.90;;;;;;5096850;28;20044;-45
2023/07/27 08:09:21;;;;;;;4.68;2.10;;;15.50;99.90;;;;;;5096648;28;20056;-45
2023/07/27 08:11:47;;;;;;;5.63;2.30;;;15.60;99.90;;;;;;5096874;28;20051;-45
2023/07/27 08:14:13;;;;;;;5.43;2.08;;;15.60;99.90;;;;;;5095703;28;20290;-46
2023/07/27 08:16:39;;;;;;;4.97;1.90;;;15.60;99.90;;;;;;5096548;28;20475;-46
2023/07/27 08:19:05;;;;;;;5.20;2.13;;;15.60;99.90;;;;;;5096574;28;20483;-46
2023/07/27 08:21:30;;;;;;;3.92;1.75;;;15.60;99.90;;;;;;5096500;28;20055;-46
2023/07/27 08:23:56;;;;;;;4.40;1.70;;;15.60;99.90;;;;;;5096839;28;20135;-46
2023/07/27 08:26:23;;;;;;;5.75;1.88;;;15.60;99.90;;;;;;5095229;28;20127;-46
2023/07/27 08:28:48;;;;;;;4.03;1.67;;;15.60;99.90;;;;;;5096260;28;20465;-45
2023/07/27 08:31:14;;;;;;;4.03;1.20;;;15.70;99.90;;;;;;5096195;28;20700;-46
2023/07/27 08:33:40;;;;;;;3.63;1.85;;;15.70;99.90;;;;;;5096248;28;20072;-45
2023/07/27 08:36:06;;;;;;;3.00;1.35;;;15.70;99.90;;;;;;5096539;28;20044;-46
2023/07/27 08:38:31;;;;;;;3.87;1.60;;;15.70;99.90;;;;;;5096142;28;20047;-45
2023/07/27 08:41:01;;;;;;;2.70;1.00;;;15.70;99.90;;;;;;5095056;28;20278;-45
2023/07/27 08:43:27;;;;;;;2.83;1.02;;;15.70;99.90;;;;;;5096046;28;20286;-45
2023/07/27 08:45:54;;;;;;;2.50;1.08;;;15.70;99.90;;;;;;5095955;28;20040;-46
2023/07/27 08:48:23;;;;;;;3.55;1.15;;;15.70;99.90;;;;;;5095891;28;20390;-45
2023/07/27 08:50:48;;;;;;;2.80;1.33;;;15.80;99.90;;;;;;5096032;28;20127;-45
2023/07/27 08:53:16;;;;;;;4.32;1.42;;;15.80;99.90;;;;;;5095975;28;20083;-45
2023/07/27 08:55:42;;;;;;;3.17;1.38;;;15.80;99.90;;;;;;5096036;28;20051;-45
2023/07/27 08:58:09;;;;;;;3.40;1.35;;;15.80;99.90;;;;;;5095862;28;20052;-46
2023/07/27 09:00:35;;;;;;;2.47;0.90;;;15.80;99.90;;;;;;5095775;28;20130;-45
2023/07/27 09:03:01;;;;;;;2.70;1.33;;;15.80;99.90;;;;;;5095854;28;20052;-45
2023/07/27 09:05:55;;;;;;;3.85;1.48;;;15.80;99.90;;;;;;5095593;28;20044;-45
2023/07/27 09:08:21;;;;;;;2.67;1.10;;;15.90;99.90;;;;;;5095633;28;20052;-45
2023/07/27 09:10:47;;;;;;;3.45;1.20;;;15.90;99.90;;;;;;5095533;28;20055;-46
2023/07/27 09:13:12;;;;;;;2.78;1.13;;;15.90;99.90;;;;;;5095477;28;20048;-45
2023/07/27 09:15:42;;;;;;;3.05;1.20;;;15.90;99.90;;;;;;5095361;28;20095;-45
2023/07/27 09:18:10;;;;;;;2.38;1.00;;;15.90;99.90;;;;;;5095222;28;20048;-45
2023/07/27 09:20:36;;;;;;;4.38;1.30;;;16.00;99.90;;;;;;5095284;28;20087;-45
2023/07/27 09:23:01;;;;;;;3.17;1.30;;;16.00;99.90;;;;;;5095471;28;20133;-45
2023/07/27 09:25:27;;;;;;;3.10;1.20;;;16.00;99.90;;;;;;5094898;28;20052;-45
2023/07/27 09:27:55;;;;;;;3.85;1.60;;;16.10;99.90;;;;;;5095239;28;20055;-46
2023/07/27 09:30:22;;;;;;;4.68;1.85;;;16.20;99.90;;;;;;5095716;28;20055;-45
2023/07/27 09:32:48;;;;;;;3.50;1.60;;;16.30;99.90;;;;;;5094265;28;20498;-45
2023/07/27 09:35:15;;;;;;;4.30;1.95;;;16.40;99.90;;;;;;5094088;28;20368;-47
2023/07/27 09:37:50;;;;;;;3.63;1.73;;;16.40;99.90;;;;;;5093932;28;20144;-45
2023/07/27 09:40:19;;;;;;;4.68;1.70;;;16.50;99.90;;;;;;5094771;28;20627;-47
2023/07/27 09:42:45;;;;;;;3.50;1.77;;;16.50;99.90;;;;;;5094795;28;20513;-46
2023/07/27 09:45:12;;;;;;;3.80;1.67;;;16.50;99.90;;;;;;5093674;28;20387;-46
2023/07/27 09:47:39;;;;;;;3.80;2.17;;;16.50;99.90;;;;;;5094843;28;20071;-46
2023/07/27 09:50:06;;;;;;;3.58;1.60;;;16.50;99.90;;;;;;5094786;28;20086;-45
2023/07/27 09:52:34;;;;;;;4.05;1.80;;;16.50;99.90;;;;;;5094730;28;20083;-45
2023/07/27 09:55:00;;;;;;;4.25;2.00;;;16.50;99.90;;;;;;5093817;28;20062;-46
2023/07/27 09:57:26;;;;;;;3.13;1.63;;;16.50;99.90;;;;;;5094714;28;20469;-45
2023/07/27 09:59:53;;;;;;;4.30;2.05;;;16.50;99.90;;;;;;5094296;28;20126;-45
2023/07/27 10:02:20;;;;;;;;;;;16.50;99.90;;;;;;5094695;28;20425;-46
2023/07/27 10:04:49;;;;;;;3.45;1.83;;;16.50;99.90;;;;;;5094430;28;19924;-47
2023/07/27 10:07:17;;;;;;;3.80;2.00;;;16.50;99.90;;;;;;5093437;28;20050;-45
2023/07/27 10:09:43;;;;;;;3.88;1.88;;;16.50;99.90;;;;;;5094801;28;20052;-47
2023/07/27 10:12:08;;;;;;;3.78;1.75;;;16.60;99.90;;;;;;5094379;28;20055;-46
2023/07/27 10:14:34;;;;;;;3.28;1.75;;;16.60;99.90;;;;;;5076371;28;20380;-45
2023/07/27 10:17:08;;;;;;;3.72;2.05;;;16.50;99.90;;;;;;5093263;28;20048;-46
2023/07/27 10:19:53;;;;;;;4.80;1.92;;;16.60;99.90;;;;;;5094442;28;20108;-47
2023/07/27 10:22:19;;;;;;;3.55;1.48;;;16.60;99.90;;;;;;5094729;28;20039;-46
2023/07/27 10:24:59;;;;;;;3.28;1.85;;;16.60;99.90;;;;;;5094216;28;20043;-45
2023/07/27 10:27:24;;;;;;;3.65;1.77;;;16.60;99.90;;;;;;5093206;28;20512;-46
2023/07/27 10:30:08;;;;;;;3.30;1.58;;;16.60;99.90;;;;;;5094073;28;20048;-45
2023/07/27 10:32:36;;;;;;;2.95;1.60;;;16.60;99.90;;;;;;5094385;28;20043;-45
2023/07/27 10:35:07;;;;;;;3.78;1.75;;;16.60;99.90;;;;;;5094053;28;20472;-46
2023/07/27 10:37:55;;;;;;;3.28;1.55;;;16.60;99.90;;;;;;5094102;28;20039;-45
2023/07/27 10:40:25;;;;;;;2.00;1.25;;;16.60;99.90;;;;;;5093985;28;20056;-46
2023/07/27 10:42:58;;;;;;;2.92;1.33;;;16.60;99.90;;;;;;5093757;28;20084;-45
2023/07/27 10:45:25;;;;;;;3.47;1.45;;;16.60;99.90;;;;;;5093811;28;20040;-46
2023/07/27 10:47:55;;;;;;;2.45;1.27;;;16.60;99.90;;;;;;5093036;28;20108;-46
2023/07/27 10:50:20;;;;;;;2.00;1.10;;;16.60;99.90;;;;;;5094219;28;20135;-46
2023/07/27 10:52:51;;;;;;;3.25;1.00;;;16.60;99.90;;;;;;5093834;28;20516;-46
2023/07/27 10:55:17;;;;;;;2.60;1.15;;;16.60;99.90;;;;;;5093589;28;20414;-46
2023/07/27 10:57:43;;;;;;;3.35;1.20;;;16.60;99.90;;;;;;5075741;28;20044;-45
2023/07/27 11:00:09;;;;;;;3.20;1.40;;;16.60;99.90;;;;;;5093800;28;20048;-45
2023/07/27 11:02:36;;;;;;;2.28;1.20;;;16.70;99.90;;;;;;5093723;28;20040;-45
2023/07/27 11:05:08;;;;;;;;;;;16.70;99.90;;;;;;5094007;28;20089;-46
2023/07/27 11:07:39;;;;;;;2.33;1.30;;;16.70;99.90;;;;;;5093640;28;19920;-45
2023/07/27 11:10:10;;;;;;;2.80;1.33;;;16.60;99.90;;;;;;5093979;28;20083;-46
2023/07/27 11:12:46;;;;;;;2.83;1.30;;;16.60;99.90;;;;;;5094601;28;20044;-46
2023/07/27 11:15:25;;;;;;;1.43;0.83;;;16.60;99.90;;;;;;5098458;28;20402;-45
2023/07/27 11:17:55;;;;;;;1.90;0.90;;;16.60;99.90;;;;;;5097784;28;20048;-45
2023/07/27 11:20:26;;;;;;;1.95;0.95;;;16.60;99.90;;;;;;5097567;28;20048;-46
2023/07/27 11:22:53;;;;;;;1.40;0.73;;;16.60;99.90;;;;;;5097284;28;20475;-47
2023/07/27 11:25:19;;;;;;;1.98;0.98;;;16.60;99.90;;;;;;5097741;28;20040;-47
2023/07/27 11:27:52;;;;;;;2.88;1.10;;;16.60;99.90;;;;;;5097409;28;20406;-47
2023/07/27 11:30:21;;;;;;;1.95;1.00;;;16.60;99.90;;;;;;5097555;28;20607;-47
2023/07/27 11:33:03;;;;;;;2.28;1.30;;;16.60;99.90;;;;;;5097331;28;20091;-46
2023/07/27 11:35:30;;;;;;;2.10;1.00;;;16.60;99.90;;;;;;5097494;28;20048;-46
2023/07/27 11:37:57;;;;;;;3.10;1.42;;;16.60;99.90;;;;;;5097234;28;20508;-47
2023/07/27 11:40:23;;;;;;;3.88;1.30;;;16.60;99.90;;;;;;5097435;28;20137;-46
2023/07/27 11:42:48;;;;;;;2.33;1.20;;;16.60;99.90;;;;;;5097378;28;20085;-47
2023/07/27 11:45:14;;;;;;;2.05;0.85;;;16.70;99.90;;;;;;5097135;28;20036;-46
2023/07/27 11:47:40;;;;;;;1.42;0.90;;;16.70;99.90;;;;;;5097502;28;20043;-46
2023/07/27 11:50:08;;;;;;;2.53;1.13;;;16.70;99.90;;;;;;5097193;28;20390;-46
2023/07/27 11:52:37;;;;;;;1.63;0.90;;;16.70;99.90;;;;;;5097200;28;20055;-46
2023/07/27 11:55:03;;;;;;;1.60;0.88;;;16.70;99.90;;;;;;5097183;28;20039;-46
2023/07/27 11:57:30;;;;;;;1.40;0.80;;;16.70;99.90;;;;;;5096903;28;20176;-46
2023/07/27 12:00:13;;;;;;;1.73;0.77;;;16.80;99.90;;;;;;5096747;28;20052;-46
2023/07/27 12:02:48;;;;;;;1.50;0.82;;;16.80;99.90;;;;;;5097301;28;20078;-45
2023/07/27 12:05:17;;;;;;;1.88;0.70;;;16.70;99.90;;;;;;5097139;28;20168;-45
2023/07/27 12:07:43;;;;;;;2.05;1.00;;;16.80;99.90;;;;;;5096702;28;20039;-45
2023/07/27 12:10:13;;;;;;;2.53;1.00;;;16.70;99.90;;;;;;5096409;28;20056;-45
2023/07/27 12:12:57;;;;;;;2.45;0.90;;;16.80;99.90;;;;;;5096433;28;20040;-45
2023/07/27 12:15:28;;;;;;;1.35;0.70;;;16.80;99.90;;;;;;5097074;28;20048;-45
2023/07/27 12:17:55;;;;;;;1.75;1.00;;;16.80;99.90;;;;;;5096871;28;20058;-44
2023/07/27 12:20:22;;;;;;;2.22;0.98;;;16.80;99.90;;;;;;5095607;28;20056;-45
2023/07/27 12:22:48;;;;;;;2.33;0.93;;;16.80;99.90;;;;;;5096263;28;20048;-45
2023/07/27 12:25:13;;;;;;;2.53;1.15;;;16.80;99.90;;;;;;5095967;28;20138;-44
2023/07/27 12:27:39;;;;;;;2.90;1.10;;;16.80;99.90;;;;;;5096478;28;20039;-44
2023/07/27 12:30:06;;;;;;;2.90;1.25;;;16.90;99.90;;;;;;5096327;28;20044;-44
2023/07/27 12:32:31;;;;;;;;;;;16.90;99.90;;;;;;5096800;28;20502;-45
2023/07/27 12:34:57;;;;;;;2.92;1.20;;;17.00;99.90;;;;;;5096409;28;19924;-45
2023/07/27 12:37:22;;;;;;;2.75;1.35;;;17.00;99.90;;;;;;5094864;28;20044;-45
2023/07/27 12:39:48;;;;;;;2.87;1.33;;;17.00;99.90;;;;;;5095978;28;20052;-44
2023/07/27 12:42:14;;;;;;;3.05;1.17;;;17.00;99.90;;;;;;5096197;28;20411;-45
2023/07/27 12:44:40;;;;;;;2.55;0.98;;;17.10;99.90;;;;;;5095127;28;20037;-44
2023/07/27 12:47:06;;;;;;;2.38;1.08;;;17.10;99.90;;;;;;5094794;28;20048;-44
2023/07/27 12:49:31;;;;;;;2.38;0.95;;;17.10;99.90;;;;;;5096053;28;20044;-45